createdAt,value
2022-11-07T00:00:32.240Z,24.90
2022-11-07T00:03:01.434Z,27.40
2022-11-07T00:05:29.906Z,26.90
2022-11-07T00:07:58.147Z,26.20
2022-11-07T00:10:26.467Z,26.30
2022-11-07T00:12:58.989Z,23.70
2022-11-07T00:15:27.332Z,27.50
2022-11-07T00:17:55.549Z,25.90
2022-11-07T00:20:25.054Z,24.30
2022-11-07T00:22:53.268Z,26.70
2022-11-07T00:25:23.793Z,26.60
2022-11-07T00:27:52.014Z,28.20
2022-11-07T00:30:26.284Z,25.80
2022-11-07T00:33:00.050Z,27.90
2022-11-07T00:35:29.163Z,28.10
2022-11-07T00:37:57.436Z,29.30
2022-11-07T00:40:25.740Z,30.60
2022-11-07T00:42:53.842Z,32.80
2022-11-07T00:45:22.162Z,30.80
2022-11-07T00:47:52.204Z,30.10
2022-11-07T00:50:20.637Z,29.50
2022-11-07T00:52:48.795Z,29.70
2022-11-07T00:55:17.159Z,28.30
2022-11-07T00:57:45.315Z,30.10
2022-11-07T01:00:17.731Z,25.60
2022-11-07T01:03:06.999Z,28.00
2022-11-07T01:05:55.553Z,27.00
2022-11-07T01:08:25.471Z,24.80
2022-11-07T01:10:54.175Z,26.10
2022-11-07T01:13:27.092Z,28.10
2022-11-07T01:15:55.350Z,24.10
2022-11-07T01:18:23.659Z,29.00
2022-11-07T01:20:52.081Z,24.50
2022-11-07T01:23:21.010Z,24.50
2022-11-07T01:25:49.549Z,25.70
2022-11-07T01:28:18.046Z,26.30
2022-11-07T01:30:46.565Z,24.60
2022-11-07T01:33:15.212Z,21.40
2022-11-07T01:35:43.644Z,23.30
2022-11-07T01:38:12.114Z,22.90
2022-11-07T01:41:02.253Z,24.60
2022-11-07T01:43:51.160Z,23.50
2022-11-07T01:46:20.964Z,20.50
2022-11-07T01:48:59.403Z,25.20
2022-11-07T01:51:29.999Z,19.10
2022-11-07T01:53:58.290Z,18.40
2022-11-07T01:56:28.606Z,19.30
2022-11-07T01:58:59.609Z,18.30
2022-11-07T02:01:31.242Z,20.40
2022-11-07T02:04:00.722Z,20.50
2022-11-07T02:06:51.635Z,16.50
2022-11-07T02:09:20.094Z,20.80
2022-11-07T02:11:48.526Z,19.30
2022-11-07T02:14:19.390Z,21.10
2022-11-07T02:16:47.834Z,24.50
2022-11-07T02:19:38.149Z,18.90
2022-11-07T02:22:47.001Z,20.00
2022-11-07T02:25:17.998Z,20.20
2022-11-07T02:27:54.456Z,21.10
2022-11-07T02:30:27.676Z,20.70
2022-11-07T02:32:56.361Z,20.40
2022-11-07T02:35:40.096Z,21.20
2022-11-07T02:38:17.524Z,20.60
2022-11-07T02:40:51.636Z,19.70
2022-11-07T02:43:23.979Z,20.50
2022-11-07T02:45:53.457Z,21.70
2022-11-07T02:48:29.458Z,18.60
2022-11-07T02:50:58.429Z,22.60
2022-11-07T02:53:26.619Z,20.50
2022-11-07T02:55:54.859Z,21.30
2022-11-07T02:58:25.892Z,19.60
2022-11-07T03:01:04.872Z,19.60
2022-11-07T03:03:45.025Z,20.90
2022-11-07T03:06:17.785Z,23.50
2022-11-07T03:08:46.130Z,21.00
2022-11-07T03:11:19.912Z,21.30
2022-11-07T03:13:55.811Z,19.20
2022-11-07T03:16:25.222Z,20.10
2022-11-07T03:18:53.429Z,19.70
2022-11-07T03:21:21.709Z,20.00
2022-11-07T03:23:50.159Z,21.30
2022-11-07T03:26:18.386Z,22.30
2022-11-07T03:28:49.050Z,19.10
2022-11-07T03:31:17.842Z,18.40
2022-11-07T03:33:46.010Z,19.10
2022-11-07T03:36:14.418Z,19.90
2022-11-07T03:38:42.759Z,21.80
2022-11-07T03:41:17.377Z,19.10
2022-11-07T03:43:45.986Z,19.50
2022-11-07T03:46:15.091Z,19.80
2022-11-07T03:48:44.270Z,17.80
2022-11-07T03:51:12.777Z,18.20
2022-11-07T03:53:40.988Z,17.40
2022-11-07T03:56:13.944Z,17.50
2022-11-07T03:58:42.321Z,18.50
2022-11-07T04:01:11.940Z,18.50
2022-11-07T04:03:42.919Z,16.40
2022-11-07T04:06:11.356Z,17.60
2022-11-07T04:08:40.091Z,17.20
2022-11-07T04:11:08.356Z,16.70
2022-11-07T04:13:55.675Z,16.60
2022-11-07T04:16:42.593Z,17.20
2022-11-07T04:19:12.882Z,17.40
2022-11-07T04:21:41.731Z,17.30
2022-11-07T04:24:09.919Z,19.60
2022-11-07T04:26:56.841Z,19.30
2022-11-07T04:29:26.803Z,16.60
2022-11-07T04:31:55.101Z,14.80
2022-11-07T04:34:23.282Z,17.60
2022-11-07T04:36:52.066Z,18.20
2022-11-07T04:39:20.333Z,17.80
2022-11-07T04:41:49.309Z,20.20
2022-11-07T04:44:17.477Z,19.30
2022-11-07T04:46:46.182Z,18.40
2022-11-07T04:49:15.475Z,17.20
2022-11-07T04:51:44.256Z,21.30
2022-11-07T04:54:17.411Z,19.30
2022-11-07T04:56:45.657Z,21.40
2022-11-07T04:59:16.713Z,20.60
2022-11-07T05:01:45.433Z,21.30
2022-11-07T05:04:13.667Z,18.80
2022-11-07T05:06:42.575Z,20.30
2022-11-07T05:09:16.629Z,20.50
2022-11-07T05:11:46.692Z,33.10
2022-11-07T05:14:17.019Z,25.60
2022-11-07T05:16:47.679Z,19.70
2022-11-07T05:19:17.545Z,20.60
2022-11-07T05:21:46.781Z,17.60
2022-11-07T05:24:15.340Z,18.60
2022-11-07T05:26:45.716Z,17.20
2022-11-07T05:29:16.747Z,17.70
2022-11-07T05:31:45.031Z,15.90
2022-11-07T05:34:14.787Z,15.50
2022-11-07T05:36:46.492Z,18.10
2022-11-07T05:41:48.927Z,16.20
2022-11-07T05:44:17.289Z,15.70
2022-11-07T05:46:48.757Z,18.40
2022-11-07T05:49:17.455Z,16.90
2022-11-07T05:51:46.962Z,18.90
2022-11-07T05:54:16.630Z,17.90
2022-11-07T05:56:47.546Z,16.70
2022-11-07T05:59:15.983Z,18.30
2022-11-07T06:01:47.667Z,17.40
2022-11-07T06:04:18.574Z,15.40
2022-11-07T06:06:49.627Z,17.30
2022-11-07T06:09:17.970Z,17.10
2022-11-07T06:11:46.378Z,18.10
2022-11-07T06:14:14.692Z,16.10
2022-11-07T06:16:42.942Z,18.60
2022-11-07T06:19:11.143Z,16.60
2022-11-07T06:21:39.430Z,18.70
2022-11-07T06:24:12.414Z,17.40
2022-11-07T06:26:44.641Z,17.40
2022-11-07T06:29:12.944Z,15.40
2022-11-07T06:31:41.218Z,16.20
2022-11-07T06:34:11.511Z,17.50
2022-11-07T06:36:39.983Z,16.50
2022-11-07T06:39:09.993Z,17.10
2022-11-07T06:41:38.198Z,17.70
2022-11-07T06:44:06.905Z,17.90
2022-11-07T06:46:41.121Z,16.70
2022-11-07T06:49:10.877Z,17.40
2022-11-07T06:51:41.737Z,18.60
2022-11-07T06:54:13.616Z,14.40
2022-11-07T06:56:41.708Z,16.40
2022-11-07T06:59:09.806Z,38.70
2022-11-07T07:01:38.261Z,33.00
2022-11-07T07:04:06.765Z,70.80
2022-11-07T07:06:35.258Z,33.80
2022-11-07T07:09:06.871Z,39.70
2022-11-07T07:11:39.077Z,17.20
2022-11-07T07:14:11.435Z,16.70
2022-11-07T07:16:40.024Z,16.90
2022-11-07T07:19:08.639Z,20.00
2022-11-07T07:21:37.310Z,17.10
2022-11-07T07:24:06.301Z,19.00
2022-11-07T07:26:34.349Z,16.80
2022-11-07T07:29:02.417Z,19.20
2022-11-07T07:31:32.170Z,16.40
2022-11-07T07:34:15.916Z,15.00
2022-11-07T07:36:48.594Z,15.00
2022-11-07T07:39:36.702Z,15.50
2022-11-07T07:42:22.296Z,16.40
2022-11-07T07:45:13.006Z,16.60
2022-11-07T07:47:53.724Z,16.30
2022-11-07T07:50:33.773Z,13.40
2022-11-07T07:53:13.872Z,14.10
2022-11-07T07:55:59.477Z,16.10
2022-11-07T07:58:46.205Z,17.00
2022-11-07T08:01:24.207Z,14.20
2022-11-07T08:04:01.708Z,14.30
2022-11-07T08:06:46.933Z,15.40
2022-11-07T08:09:23.116Z,14.30
2022-11-07T08:12:03.578Z,15.70
2022-11-07T08:14:35.259Z,17.00
2022-11-07T08:17:14.612Z,14.10
2022-11-07T08:19:55.409Z,14.80
2022-11-07T08:22:33.623Z,15.40
2022-11-07T08:25:07.810Z,19.40
2022-11-07T08:27:40.673Z,13.90
2022-11-07T08:30:30.333Z,15.10
2022-11-07T08:33:11.644Z,13.80
2022-11-07T08:35:52.738Z,14.50
2022-11-07T08:38:34.576Z,14.60
2022-11-07T08:41:15.371Z,13.50
2022-11-07T08:43:57.661Z,13.10
2022-11-07T08:46:39.307Z,13.50
2022-11-07T08:49:51.991Z,13.40
2022-11-07T08:52:27.077Z,11.30
2022-11-07T08:55:18.840Z,13.00
2022-11-07T08:58:18.680Z,19.60
2022-11-07T09:01:09.445Z,26.00
2022-11-07T09:03:47.521Z,14.70
2022-11-07T09:06:31.717Z,13.80
2022-11-07T09:09:11.545Z,11.50
2022-11-07T09:11:58.447Z,12.50
2022-11-07T09:17:32.803Z,13.00
2022-11-07T09:20:15.884Z,14.40
2022-11-07T09:23:02.212Z,12.50
2022-11-07T09:25:38.108Z,10.70
2022-11-07T09:28:22.219Z,9.30
2022-11-07T09:31:03.487Z,11.30
2022-11-07T09:33:54.867Z,10.70
2022-11-07T09:37:11.366Z,12.50
2022-11-07T09:39:57.212Z,9.00
2022-11-07T09:43:06.206Z,7.60
2022-11-07T09:46:06.944Z,9.40
2022-11-07T09:49:16.892Z,10.40
2022-11-07T09:52:00.412Z,12.50
2022-11-07T09:54:39.326Z,23.00
2022-11-07T09:57:22.445Z,12.10
2022-11-07T10:00:17.063Z,11.20
2022-11-07T10:02:58.835Z,8.10
2022-11-07T10:05:57.176Z,8.40
2022-11-07T10:08:52.776Z,10.00
2022-11-07T10:11:53.569Z,8.40
2022-11-07T10:14:40.452Z,7.60
2022-11-07T10:17:40.483Z,11.30
2022-11-07T10:21:22.931Z,9.00
2022-11-07T10:24:36.560Z,8.10
2022-11-07T10:27:39.744Z,8.90
2022-11-07T10:30:21.757Z,9.20
2022-11-07T10:33:21.119Z,8.10
2022-11-07T10:35:59.676Z,7.80
2022-11-07T10:38:41.387Z,7.30
2022-11-07T10:41:24.784Z,6.00
2022-11-07T10:46:50.170Z,7.80
2022-11-07T10:50:29.499Z,7.60
2022-11-07T10:53:25.250Z,9.30
2022-11-07T10:56:10.219Z,7.70
2022-11-07T10:58:59.351Z,8.00
2022-11-07T11:01:50.395Z,5.60
2022-11-07T11:04:51.010Z,6.50
2022-11-07T11:07:43.553Z,9.80
2022-11-07T11:10:33.939Z,7.70
2022-11-07T11:13:39.469Z,9.10
2022-11-07T11:16:40.485Z,5.90
2022-11-07T11:19:50.427Z,9.30
2022-11-07T11:26:15.034Z,7.60
2022-11-07T11:29:04.634Z,6.90
2022-11-07T11:32:10.395Z,6.50
2022-11-07T11:34:53.575Z,10.00
2022-11-07T11:37:36.928Z,7.70
2022-11-07T11:40:21.778Z,8.10
2022-11-07T11:43:33.745Z,7.20
2022-11-07T11:46:38.616Z,9.00
2022-11-07T11:49:47.400Z,8.30
2022-11-07T11:52:24.231Z,10.10
2022-11-07T11:55:07.011Z,6.20
2022-11-07T11:58:44.056Z,6.10
2022-11-07T12:01:40.776Z,6.70
2022-11-07T12:04:47.105Z,8.40
2022-11-07T12:07:52.841Z,6.10
2022-11-07T12:10:32.766Z,6.10
2022-11-07T12:13:20.999Z,6.60
2022-11-07T12:16:34.845Z,6.50
2022-11-07T12:19:33.096Z,7.70
2022-11-07T12:22:35.266Z,9.10
2022-11-07T12:25:19.941Z,7.70
2022-11-07T12:28:30.008Z,3.90
2022-11-07T12:31:31.652Z,7.00
2022-11-07T12:34:42.510Z,6.40
2022-11-07T12:37:35.529Z,8.40
2022-11-07T12:40:17.569Z,7.80
2022-11-07T12:43:01.424Z,8.40
2022-11-07T12:46:06.824Z,8.70
2022-11-07T12:49:02.217Z,9.20
2022-11-07T12:52:24.717Z,6.90
2022-11-07T12:58:10.520Z,9.90
2022-11-07T13:00:51.016Z,9.80
2022-11-07T13:03:54.472Z,8.10
2022-11-07T13:06:58.983Z,10.40
2022-11-07T13:09:59.503Z,6.70
2022-11-07T13:13:01.709Z,14.40
2022-11-07T13:16:14.630Z,7.60
2022-11-07T13:18:43.142Z,8.80
2022-11-07T13:21:18.692Z,7.20
2022-11-07T13:23:52.867Z,8.50
2022-11-07T13:26:47.994Z,7.10
2022-11-07T13:29:26.409Z,9.30
2022-11-07T13:32:16.947Z,7.70
2022-11-07T13:34:59.343Z,8.50
2022-11-07T13:37:57.295Z,6.30
2022-11-07T13:41:07.273Z,9.20
2022-11-07T13:43:48.401Z,8.80
2022-11-07T13:46:25.277Z,10.60
2022-11-07T13:49:03.644Z,8.20
2022-11-07T13:52:11.245Z,7.30
2022-11-07T13:54:54.270Z,9.10
2022-11-07T13:57:54.799Z,7.60
2022-11-07T14:00:25.524Z,6.10
2022-11-07T14:03:24.574Z,9.40
2022-11-07T14:06:21.449Z,7.50
2022-11-07T14:11:28.512Z,6.20
2022-11-07T14:14:18.178Z,6.00
2022-11-07T14:17:05.151Z,21.50
2022-11-07T14:19:39.420Z,20.10
2022-11-07T14:27:06.870Z,7.80
2022-11-07T14:29:39.561Z,4.50
2022-11-07T14:32:17.348Z,8.10
2022-11-07T14:35:28.214Z,7.60
2022-11-07T14:38:29.180Z,12.50
2022-11-07T14:41:03.647Z,9.00
2022-11-07T14:43:53.758Z,8.40
2022-11-07T14:46:29.160Z,22.10
2022-11-07T14:49:15.042Z,20.20
2022-11-07T14:51:49.938Z,12.50
2022-11-07T14:54:22.228Z,10.80
2022-11-07T14:56:56.277Z,9.80
2022-11-07T14:59:36.442Z,11.40
2022-11-07T15:02:09.216Z,13.80
2022-11-07T15:05:10.781Z,11.60
2022-11-07T15:08:05.831Z,12.90
2022-11-07T15:10:45.989Z,10.60
2022-11-07T15:13:33.330Z,9.80
2022-11-07T15:16:23.563Z,12.00
2022-11-07T15:19:38.732Z,12.40
2022-11-07T15:22:41.111Z,13.90
2022-11-07T15:25:39.819Z,15.10
2022-11-07T15:28:34.043Z,12.50
2022-11-07T15:31:29.079Z,13.90
2022-11-07T15:36:49.830Z,13.40
2022-11-07T15:39:22.307Z,12.80
2022-11-07T15:42:02.305Z,17.70
2022-11-07T15:44:40.592Z,18.00
2022-11-07T15:47:21.313Z,16.80
2022-11-07T15:49:56.188Z,12.50
2022-11-07T15:52:25.590Z,15.90
2022-11-07T15:55:22.999Z,14.60
2022-11-07T15:58:10.999Z,13.80
2022-11-07T16:00:50.528Z,12.80
2022-11-07T16:03:38.627Z,15.90
2022-11-07T16:06:45.826Z,16.10
2022-11-07T16:09:43.810Z,15.30
2022-11-07T16:12:44.273Z,23.00
2022-11-07T16:15:32.812Z,18.50
2022-11-07T16:18:28.609Z,21.30
2022-11-07T16:21:05.010Z,17.40
2022-11-07T16:23:33.539Z,18.80
2022-11-07T16:26:02.324Z,15.90
2022-11-07T16:28:36.918Z,54.60
2022-11-07T16:31:06.981Z,60.70
2022-11-07T16:33:35.379Z,41.30
2022-11-07T16:36:22.102Z,78.50
2022-11-07T16:38:50.677Z,22.40
2022-11-07T16:41:20.056Z,39.10
2022-11-07T16:43:52.697Z,21.50
2022-11-07T16:46:24.653Z,17.30
2022-11-07T16:49:06.463Z,17.50
2022-11-07T16:51:35.339Z,15.70
2022-11-07T16:54:04.201Z,15.30
2022-11-07T16:56:35.656Z,14.10
2022-11-07T16:59:07.052Z,15.00
2022-11-07T17:01:40.713Z,15.70
2022-11-07T17:04:10.476Z,20.90
2022-11-07T17:06:48.630Z,18.80
2022-11-07T17:09:19.503Z,17.70
2022-11-07T17:11:47.879Z,15.90
2022-11-07T17:14:16.926Z,54.50
2022-11-07T17:16:48.072Z,24.40
2022-11-07T17:19:16.412Z,16.30
2022-11-07T17:21:48.822Z,18.50
2022-11-07T17:24:17.353Z,17.20
2022-11-07T17:26:50.190Z,16.60
2022-11-07T17:29:19.225Z,18.10
2022-11-07T17:31:48.366Z,17.90
2022-11-07T17:34:16.954Z,16.20
2022-11-07T17:36:49.516Z,16.90
2022-11-07T17:39:20.940Z,22.20
2022-11-07T17:41:51.154Z,20.40
2022-11-07T17:44:20.127Z,20.50
2022-11-07T17:46:50.182Z,22.50
2022-11-07T17:49:22.108Z,25.50
2022-11-07T17:51:52.984Z,24.70
2022-11-07T17:56:57.552Z,24.10
2022-11-07T17:59:29.087Z,22.00
2022-11-07T18:04:26.024Z,20.40
2022-11-07T18:06:54.415Z,19.40
2022-11-07T18:09:23.319Z,26.30
2022-11-07T18:11:51.888Z,20.80
2022-11-07T18:14:20.259Z,25.40
2022-11-07T18:16:48.487Z,21.30
2022-11-07T18:19:19.319Z,19.50
2022-11-07T18:21:48.303Z,18.90
2022-11-07T18:24:17.779Z,18.90
2022-11-07T18:26:48.423Z,39.40
2022-11-07T18:29:17.971Z,51.90
2022-11-07T18:31:52.121Z,25.10
2022-11-07T18:34:20.869Z,21.60
2022-11-07T18:36:49.451Z,18.90
2022-11-07T18:39:25.249Z,20.90
2022-11-07T18:41:56.894Z,21.50
2022-11-07T18:44:25.724Z,22.20
2022-11-07T18:46:56.156Z,28.80
2022-11-07T18:49:25.154Z,20.40
2022-11-07T18:51:56.242Z,23.70
2022-11-07T18:54:26.003Z,20.00
2022-11-07T18:56:54.568Z,22.60
2022-11-07T18:59:25.695Z,19.40
2022-11-07T19:01:55.936Z,21.10
2022-11-07T19:04:24.493Z,21.30
2022-11-07T19:06:58.379Z,19.80
2022-11-07T19:09:32.367Z,20.50
2022-11-07T19:12:01.713Z,17.90
2022-11-07T19:14:30.886Z,18.30
2022-11-07T19:17:00.404Z,16.90
2022-11-07T19:19:35.722Z,15.90
2022-11-07T19:22:05.800Z,16.70
2022-11-07T19:24:39.203Z,18.30
2022-11-07T19:27:08.612Z,19.30
2022-11-07T19:29:44.786Z,18.60
2022-11-07T19:32:13.914Z,22.00
2022-11-07T19:34:42.484Z,35.60
2022-11-07T19:37:11.705Z,24.50
2022-11-07T19:39:40.607Z,20.60
2022-11-07T19:42:13.761Z,19.40
2022-11-07T19:44:48.433Z,88.30
2022-11-07T19:47:18.730Z,64.40
2022-11-07T19:49:48.155Z,66.30
2022-11-07T19:52:16.586Z,44.60
2022-11-07T19:54:46.030Z,23.20
2022-11-07T19:59:50.536Z,17.40
2022-11-07T20:02:32.441Z,20.50
2022-11-07T20:05:02.855Z,18.30
2022-11-07T20:07:32.788Z,17.00
2022-11-07T20:10:01.942Z,15.20
2022-11-07T20:12:30.894Z,17.30
2022-11-07T20:15:00.224Z,18.20
2022-11-07T20:17:30.463Z,54.40
2022-11-07T20:20:03.452Z,33.00
2022-11-07T20:22:35.089Z,18.20
2022-11-07T20:25:05.623Z,20.90
2022-11-07T20:27:34.614Z,20.90
2022-11-07T20:30:03.846Z,17.60
2022-11-07T20:32:32.156Z,19.30
2022-11-07T20:35:00.465Z,16.60
2022-11-07T20:37:30.120Z,19.80
2022-11-07T20:39:58.471Z,19.70
2022-11-07T20:42:27.509Z,19.30
2022-11-07T20:44:56.667Z,16.70
2022-11-07T20:47:26.406Z,31.40
2022-11-07T20:49:54.738Z,37.60
2022-11-07T20:52:26.380Z,43.70
2022-11-07T20:54:55.563Z,40.80
2022-11-07T20:57:26.245Z,18.40
2022-11-07T20:59:54.757Z,17.60
2022-11-07T21:02:24.362Z,18.30
2022-11-07T21:05:16.805Z,17.40
2022-11-07T21:07:45.513Z,19.90
2022-11-07T21:10:14.966Z,20.50
2022-11-07T21:12:45.831Z,17.60
2022-11-07T21:15:14.664Z,18.10
2022-11-07T21:17:44.148Z,16.80
2022-11-07T21:20:14.272Z,17.00
2022-11-07T21:22:49.756Z,18.70
2022-11-07T21:25:18.314Z,69.70
2022-11-07T21:27:46.869Z,37.40
2022-11-07T21:30:29.058Z,20.20
2022-11-07T21:33:00.765Z,17.60
2022-11-07T21:35:35.586Z,19.20
2022-11-07T21:38:06.781Z,17.70
2022-11-07T21:43:21.292Z,17.80
2022-11-07T21:45:57.414Z,16.90
2022-11-07T21:48:37.302Z,14.70
2022-11-07T21:51:16.176Z,16.40
2022-11-07T21:53:53.327Z,15.40
2022-11-07T21:56:37.789Z,14.40
2022-11-07T21:59:24.886Z,14.90
2022-11-07T22:02:03.417Z,14.90
2022-11-07T22:04:40.699Z,14.30
2022-11-07T22:07:17.708Z,16.40
2022-11-07T22:09:59.148Z,15.20
2022-11-07T22:12:31.191Z,14.20
2022-11-07T22:15:01.601Z,15.80
2022-11-07T22:17:48.702Z,16.70
2022-11-07T22:20:32.907Z,14.40
2022-11-07T22:23:01.963Z,14.60
2022-11-07T22:25:44.674Z,15.90
2022-11-07T22:28:18.039Z,14.80
2022-11-07T22:30:47.948Z,14.70
2022-11-07T22:33:21.232Z,13.80
2022-11-07T22:35:51.577Z,15.00
2022-11-07T22:38:36.737Z,15.10
2022-11-07T22:41:34.570Z,13.60
2022-11-07T22:44:20.243Z,15.20
2022-11-07T22:47:18.090Z,15.00
2022-11-07T22:49:56.788Z,14.60
2022-11-07T22:52:39.902Z,13.80
2022-11-07T22:55:11.610Z,14.40
2022-11-07T22:58:00.957Z,14.40
2022-11-07T23:01:27.527Z,13.30
2022-11-07T23:03:46.586Z,12.90
2022-11-07T23:06:40.989Z,14.00
2022-11-07T23:10:00.556Z,14.40
2022-11-07T23:12:52.694Z,14.40
2022-11-07T23:16:05.116Z,13.80
2022-11-07T23:18:43.369Z,14.30
2022-11-07T23:21:19.384Z,14.70
2022-11-07T23:24:02.702Z,15.10
2022-11-07T23:26:44.311Z,13.30
2022-11-07T23:29:29.483Z,13.60
2022-11-07T23:32:39.405Z,13.50
2022-11-07T23:35:13.793Z,12.90
2022-11-07T23:37:52.101Z,13.10
2022-11-07T23:40:51.305Z,14.20
2022-11-07T23:43:27.815Z,13.50
2022-11-07T23:46:25.288Z,14.70
2022-11-07T23:49:18.697Z,12.60
2022-11-07T23:52:05.255Z,13.60
2022-11-07T23:55:03.937Z,15.80
2022-11-07T23:57:57.813Z,14.60
